sensor_id;sensor_type;location;lat;lon;timestamp;P1;durP1;ratioP1;P2;durP2;ratioP2
10801;SDS011;5453;50.852;7.102;2023-02-28T00:00:24;6.70;;;1.92;;
10801;SDS011;5453;50.852;7.102;2023-02-28T00:02:57;2.78;;;1.60;;
10801;SDS011;5453;50.852;7.102;2023-02-28T00:05:29;2.63;;;1.40;;
10801;SDS011;5453;50.852;7.102;2023-02-28T00:08:03;2.22;;;1.85;;
10801;SDS011;5453;50.852;7.102;2023-02-28T00:10:37;2.55;;;1.42;;
10801;SDS011;5453;50.852;7.102;2023-02-28T00:13:10;4.15;;;1.52;;
10801;SDS011;5453;50.852;7.102;2023-02-28T00:15:43;3.65;;;1.88;;
10801;SDS011;5453;50.852;7.102;2023-02-28T00:18:15;2.80;;;1.38;;
10801;SDS011;5453;50.852;7.102;2023-02-28T00:20:47;3.20;;;1.77;;
10801;SDS011;5453;50.852;7.102;2023-02-28T00:23:19;2.08;;;1.60;;
10801;SDS011;5453;50.852;7.102;2023-02-28T00:25:53;2.80;;;1.45;;
10801;SDS011;5453;50.852;7.102;2023-02-28T00:28:25;3.90;;;1.60;;
10801;SDS011;5453;50.852;7.102;2023-02-28T00:30:57;4.72;;;1.88;;
10801;SDS011;5453;50.852;7.102;2023-02-28T00:33:30;4.80;;;2.00;;
10801;SDS011;5453;50.852;7.102;2023-02-28T00:36:06;5.55;;;1.73;;
10801;SDS011;5453;50.852;7.102;2023-02-28T00:38:41;4.55;;;1.88;;
10801;SDS011;5453;50.852;7.102;2023-02-28T00:41:15;2.53;;;1.55;;
10801;SDS011;5453;50.852;7.102;2023-02-28T00:43:47;4.93;;;1.73;;
10801;SDS011;5453;50.852;7.102;2023-02-28T00:46:20;2.75;;;1.90;;
10801;SDS011;5453;50.852;7.102;2023-02-28T00:48:54;3.70;;;1.80;;
10801;SDS011;5453;50.852;7.102;2023-02-28T00:51:27;3.55;;;1.92;;
10801;SDS011;5453;50.852;7.102;2023-02-28T00:54:01;3.42;;;1.88;;
10801;SDS011;5453;50.852;7.102;2023-02-28T00:56:34;4.30;;;1.88;;
10801;SDS011;5453;50.852;7.102;2023-02-28T00:59:08;5.15;;;1.70;;
10801;SDS011;5453;50.852;7.102;2023-02-28T01:01:42;2.72;;;1.35;;
10801;SDS011;5453;50.852;7.102;2023-02-28T01:04:16;4.68;;;1.88;;
10801;SDS011;5453;50.852;7.102;2023-02-28T01:06:48;5.93;;;1.63;;
10801;SDS011;5453;50.852;7.102;2023-02-28T01:09:20;2.65;;;1.42;;
10801;SDS011;5453;50.852;7.102;2023-02-28T01:11:54;3.88;;;1.42;;
10801;SDS011;5453;50.852;7.102;2023-02-28T01:14:26;4.35;;;1.60;;
10801;SDS011;5453;50.852;7.102;2023-02-28T01:16:58;3.03;;;1.50;;
10801;SDS011;5453;50.852;7.102;2023-02-28T01:19:30;2.95;;;2.08;;
10801;SDS011;5453;50.852;7.102;2023-02-28T01:22:02;2.63;;;1.60;;
10801;SDS011;5453;50.852;7.102;2023-02-28T01:24:36;3.15;;;1.60;;
10801;SDS011;5453;50.852;7.102;2023-02-28T01:27:10;3.83;;;1.70;;
10801;SDS011;5453;50.852;7.102;2023-02-28T01:29:42;2.53;;;1.45;;
10801;SDS011;5453;50.852;7.102;2023-02-28T01:32:15;2.08;;;1.45;;
10801;SDS011;5453;50.852;7.102;2023-02-28T01:34:47;3.15;;;1.50;;
10801;SDS011;5453;50.852;7.102;2023-02-28T01:37:19;3.30;;;1.38;;
10801;SDS011;5453;50.852;7.102;2023-02-28T01:39:52;4.43;;;1.52;;
10801;SDS011;5453;50.852;7.102;2023-02-28T01:42:25;2.30;;;1.48;;
10801;SDS011;5453;50.852;7.102;2023-02-28T01:45:03;3.47;;;1.50;;
10801;SDS011;5453;50.852;7.102;2023-02-28T01:47:51;3.47;;;1.40;;
10801;SDS011;5453;50.852;7.102;2023-02-28T01:50:28;2.58;;;1.40;;
10801;SDS011;5453;50.852;7.102;2023-02-28T01:53:06;2.72;;;1.20;;
10801;SDS011;5453;50.852;7.102;2023-02-28T01:55:41;2.13;;;1.10;;
10801;SDS011;5453;50.852;7.102;2023-02-28T01:58:20;2.95;;;1.30;;
10801;SDS011;5453;50.852;7.102;2023-02-28T02:00:53;2.30;;;1.05;;
10801;SDS011;5453;50.852;7.102;2023-02-28T02:03:27;1.50;;;1.10;;
10801;SDS011;5453;50.852;7.102;2023-02-28T02:06:01;2.40;;;1.17;;
10801;SDS011;5453;50.852;7.102;2023-02-28T02:08:34;2.55;;;1.55;;
10801;SDS011;5453;50.852;7.102;2023-02-28T02:11:10;2.95;;;1.58;;
10801;SDS011;5453;50.852;7.102;2023-02-28T02:13:53;2.95;;;1.33;;
10801;SDS011;5453;50.852;7.102;2023-02-28T02:17:00;3.13;;;1.50;;
10801;SDS011;5453;50.852;7.102;2023-02-28T02:23:29;1.40;;;1.30;;
10801;SDS011;5453;50.852;7.102;2023-02-28T02:26:34;1.85;;;1.17;;
10801;SDS011;5453;50.852;7.102;2023-02-28T02:29:39;1.50;;;1.20;;
10801;SDS011;5453;50.852;7.102;2023-02-28T02:32:49;2.22;;;0.90;;
10801;SDS011;5453;50.852;7.102;2023-02-28T02:35:59;1.50;;;1.00;;
10801;SDS011;5453;50.852;7.102;2023-02-28T02:38:38;2.17;;;1.10;;
10801;SDS011;5453;50.852;7.102;2023-02-28T02:41:23;3.10;;;1.35;;
10801;SDS011;5453;50.852;7.102;2023-02-28T02:44:01;2.05;;;1.10;;
10801;SDS011;5453;50.852;7.102;2023-02-28T02:46:39;1.48;;;1.38;;
10801;SDS011;5453;50.852;7.102;2023-02-28T02:49:15;1.52;;;1.30;;
10801;SDS011;5453;50.852;7.102;2023-02-28T02:51:54;2.88;;;1.35;;
10801;SDS011;5453;50.852;7.102;2023-02-28T02:54:32;2.20;;;1.27;;
10801;SDS011;5453;50.852;7.102;2023-02-28T02:57:10;2.92;;;1.38;;
10801;SDS011;5453;50.852;7.102;2023-02-28T02:59:48;2.72;;;1.40;;
10801;SDS011;5453;50.852;7.102;2023-02-28T03:02:23;1.42;;;1.27;;
10801;SDS011;5453;50.852;7.102;2023-02-28T03:04:56;1.27;;;0.95;;
10801;SDS011;5453;50.852;7.102;2023-02-28T03:07:34;3.08;;;1.17;;
10801;SDS011;5453;50.852;7.102;2023-02-28T03:13:02;2.28;;;1.20;;
10801;SDS011;5453;50.852;7.102;2023-02-28T03:15:58;2.08;;;1.40;;
10801;SDS011;5453;50.852;7.102;2023-02-28T03:19:02;2.55;;;1.30;;
10801;SDS011;5453;50.852;7.102;2023-02-28T03:22:18;2.85;;;1.33;;
10801;SDS011;5453;50.852;7.102;2023-02-28T03:27:46;1.80;;;1.35;;
10801;SDS011;5453;50.852;7.102;2023-02-28T03:30:27;4.28;;;1.60;;
10801;SDS011;5453;50.852;7.102;2023-02-28T03:33:08;3.05;;;1.55;;
10801;SDS011;5453;50.852;7.102;2023-02-28T03:35:47;3.17;;;1.40;;
10801;SDS011;5453;50.852;7.102;2023-02-28T03:38:27;2.50;;;1.40;;
10801;SDS011;5453;50.852;7.102;2023-02-28T03:41:06;5.35;;;1.60;;
10801;SDS011;5453;50.852;7.102;2023-02-28T03:43:45;2.60;;;1.55;;
10801;SDS011;5453;50.852;7.102;2023-02-28T03:46:25;2.85;;;1.33;;
10801;SDS011;5453;50.852;7.102;2023-02-28T03:49:03;2.50;;;1.77;;
10801;SDS011;5453;50.852;7.102;2023-02-28T03:51:40;2.88;;;1.60;;
10801;SDS011;5453;50.852;7.102;2023-02-28T03:54:17;2.08;;;1.23;;
10801;SDS011;5453;50.852;7.102;2023-02-28T03:56:56;2.83;;;1.13;;
10801;SDS011;5453;50.852;7.102;2023-02-28T03:59:34;2.65;;;1.17;;
10801;SDS011;5453;50.852;7.102;2023-02-28T04:02:11;4.88;;;1.50;;
10801;SDS011;5453;50.852;7.102;2023-02-28T04:04:44;4.63;;;1.55;;
10801;SDS011;5453;50.852;7.102;2023-02-28T04:07:18;1.35;;;1.20;;
10801;SDS011;5453;50.852;7.102;2023-02-28T04:09:52;2.42;;;1.23;;
10801;SDS011;5453;50.852;7.102;2023-02-28T04:12:24;3.42;;;2.00;;
10801;SDS011;5453;50.852;7.102;2023-02-28T04:14:57;2.08;;;1.42;;
10801;SDS011;5453;50.852;7.102;2023-02-28T04:17:29;3.05;;;1.60;;
10801;SDS011;5453;50.852;7.102;2023-02-28T04:20:01;3.60;;;1.50;;
10801;SDS011;5453;50.852;7.102;2023-02-28T04:22:39;2.63;;;2.22;;
10801;SDS011;5453;50.852;7.102;2023-02-28T04:25:13;2.63;;;1.42;;
10801;SDS011;5453;50.852;7.102;2023-02-28T04:27:45;1.80;;;1.60;;
10801;SDS011;5453;50.852;7.102;2023-02-28T04:30:18;2.47;;;1.60;;
10801;SDS011;5453;50.852;7.102;2023-02-28T04:32:50;3.10;;;1.80;;
10801;SDS011;5453;50.852;7.102;2023-02-28T04:35:22;2.88;;;1.60;;
10801;SDS011;5453;50.852;7.102;2023-02-28T04:37:54;3.92;;;1.77;;
10801;SDS011;5453;50.852;7.102;2023-02-28T04:40:28;4.30;;;1.60;;
10801;SDS011;5453;50.852;7.102;2023-02-28T04:43:00;2.25;;;1.25;;
10801;SDS011;5453;50.852;7.102;2023-02-28T04:45:33;3.08;;;2.03;;
10801;SDS011;5453;50.852;7.102;2023-02-28T04:48:06;2.63;;;1.58;;
10801;SDS011;5453;50.852;7.102;2023-02-28T04:50:38;2.08;;;1.60;;
10801;SDS011;5453;50.852;7.102;2023-02-28T04:53:11;4.53;;;1.90;;
10801;SDS011;5453;50.852;7.102;2023-02-28T04:55:45;4.70;;;1.60;;
10801;SDS011;5453;50.852;7.102;2023-02-28T04:58:17;3.90;;;2.08;;
10801;SDS011;5453;50.852;7.102;2023-02-28T05:00:50;3.17;;;1.50;;
10801;SDS011;5453;50.852;7.102;2023-02-28T05:03:22;2.25;;;1.60;;
10801;SDS011;5453;50.852;7.102;2023-02-28T05:05:55;2.50;;;1.38;;
10801;SDS011;5453;50.852;7.102;2023-02-28T05:08:27;2.60;;;1.40;;
10801;SDS011;5453;50.852;7.102;2023-02-28T05:11:02;3.08;;;1.70;;
10801;SDS011;5453;50.852;7.102;2023-02-28T05:13:38;2.88;;;1.70;;
10801;SDS011;5453;50.852;7.102;2023-02-28T05:16:11;2.22;;;1.55;;
10801;SDS011;5453;50.852;7.102;2023-02-28T05:18:43;3.42;;;1.83;;
10801;SDS011;5453;50.852;7.102;2023-02-28T05:21:26;2.33;;;1.60;;
10801;SDS011;5453;50.852;7.102;2023-02-28T05:24:01;4.43;;;1.98;;
10801;SDS011;5453;50.852;7.102;2023-02-28T05:29:11;3.15;;;2.05;;
10801;SDS011;5453;50.852;7.102;2023-02-28T05:31:43;2.65;;;1.33;;
10801;SDS011;5453;50.852;7.102;2023-02-28T05:34:15;4.88;;;1.90;;
10801;SDS011;5453;50.852;7.102;2023-02-28T05:36:48;2.50;;;1.58;;
10801;SDS011;5453;50.852;7.102;2023-02-28T05:39:20;2.67;;;1.95;;
10801;SDS011;5453;50.852;7.102;2023-02-28T05:41:54;2.47;;;1.42;;
10801;SDS011;5453;50.852;7.102;2023-02-28T05:44:26;2.97;;;1.40;;
10801;SDS011;5453;50.852;7.102;2023-02-28T05:46:58;2.63;;;1.80;;
10801;SDS011;5453;50.852;7.102;2023-02-28T05:49:31;4.00;;;2.47;;
10801;SDS011;5453;50.852;7.102;2023-02-28T05:52:03;2.42;;;1.75;;
10801;SDS011;5453;50.852;7.102;2023-02-28T05:54:36;3.63;;;2.15;;
10801;SDS011;5453;50.852;7.102;2023-02-28T05:57:09;4.03;;;2.40;;
10801;SDS011;5453;50.852;7.102;2023-02-28T05:59:41;5.05;;;2.50;;
10801;SDS011;5453;50.852;7.102;2023-02-28T06:02:14;5.15;;;2.30;;
10801;SDS011;5453;50.852;7.102;2023-02-28T06:04:48;3.83;;;2.13;;
10801;SDS011;5453;50.852;7.102;2023-02-28T06:07:20;4.30;;;1.85;;
10801;SDS011;5453;50.852;7.102;2023-02-28T06:09:53;2.58;;;1.77;;
10801;SDS011;5453;50.852;7.102;2023-02-28T06:12:27;3.65;;;2.22;;
10801;SDS011;5453;50.852;7.102;2023-02-28T06:14:59;2.75;;;1.92;;
10801;SDS011;5453;50.852;7.102;2023-02-28T06:17:31;4.00;;;1.90;;
10801;SDS011;5453;50.852;7.102;2023-02-28T06:20:05;3.40;;;1.77;;
10801;SDS011;5453;50.852;7.102;2023-02-28T06:22:39;2.35;;;1.55;;
10801;SDS011;5453;50.852;7.102;2023-02-28T06:25:12;3.20;;;1.80;;
10801;SDS011;5453;50.852;7.102;2023-02-28T06:27:45;3.33;;;1.88;;
10801;SDS011;5453;50.852;7.102;2023-02-28T06:30:18;3.65;;;1.83;;
10801;SDS011;5453;50.852;7.102;2023-02-28T06:35:26;3.47;;;2.08;;
10801;SDS011;5453;50.852;7.102;2023-02-28T06:37:58;3.60;;;1.90;;
10801;SDS011;5453;50.852;7.102;2023-02-28T06:40:31;4.53;;;2.30;;
10801;SDS011;5453;50.852;7.102;2023-02-28T06:43:06;3.92;;;1.63;;
10801;SDS011;5453;50.852;7.102;2023-02-28T06:45:41;4.82;;;2.10;;
10801;SDS011;5453;50.852;7.102;2023-02-28T06:48:14;6.05;;;2.42;;
10801;SDS011;5453;50.852;7.102;2023-02-28T06:50:48;3.83;;;2.05;;
10801;SDS011;5453;50.852;7.102;2023-02-28T06:53:20;4.78;;;2.08;;
10801;SDS011;5453;50.852;7.102;2023-02-28T06:55:52;6.20;;;1.98;;
10801;SDS011;5453;50.852;7.102;2023-02-28T06:58:26;5.13;;;2.10;;
10801;SDS011;5453;50.852;7.102;2023-02-28T07:00:58;4.63;;;2.42;;
10801;SDS011;5453;50.852;7.102;2023-02-28T07:03:31;3.90;;;2.30;;
10801;SDS011;5453;50.852;7.102;2023-02-28T07:06:04;4.55;;;2.15;;
10801;SDS011;5453;50.852;7.102;2023-02-28T07:08:37;4.13;;;2.15;;
10801;SDS011;5453;50.852;7.102;2023-02-28T07:11:11;3.78;;;1.77;;
10801;SDS011;5453;50.852;7.102;2023-02-28T07:13:47;3.88;;;1.88;;
10801;SDS011;5453;50.852;7.102;2023-02-28T07:16:19;4.65;;;2.15;;
10801;SDS011;5453;50.852;7.102;2023-02-28T07:18:53;2.58;;;2.00;;
10801;SDS011;5453;50.852;7.102;2023-02-28T07:21:27;2.85;;;1.45;;
10801;SDS011;5453;50.852;7.102;2023-02-28T07:24:00;3.28;;;1.52;;
10801;SDS011;5453;50.852;7.102;2023-02-28T07:26:33;2.92;;;1.48;;
10801;SDS011;5453;50.852;7.102;2023-02-28T07:29:07;2.78;;;1.50;;
10801;SDS011;5453;50.852;7.102;2023-02-28T07:31:40;2.90;;;1.98;;
10801;SDS011;5453;50.852;7.102;2023-02-28T07:34:12;1.70;;;1.40;;
10801;SDS011;5453;50.852;7.102;2023-02-28T07:36:45;3.70;;;1.50;;
10801;SDS011;5453;50.852;7.102;2023-02-28T07:39:19;1.45;;;1.33;;
10801;SDS011;5453;50.852;7.102;2023-02-28T07:41:51;3.55;;;1.50;;
10801;SDS011;5453;50.852;7.102;2023-02-28T07:44:31;3.25;;;1.50;;
10801;SDS011;5453;50.852;7.102;2023-02-28T07:47:04;2.10;;;1.42;;
10801;SDS011;5453;50.852;7.102;2023-02-28T07:49:40;4.53;;;2.58;;
10801;SDS011;5453;50.852;7.102;2023-02-28T07:52:14;3.22;;;1.98;;
10801;SDS011;5453;50.852;7.102;2023-02-28T07:54:47;2.45;;;1.63;;
10801;SDS011;5453;50.852;7.102;2023-02-28T07:57:20;3.10;;;1.83;;
10801;SDS011;5453;50.852;7.102;2023-02-28T07:59:57;2.42;;;1.88;;
10801;SDS011;5453;50.852;7.102;2023-02-28T08:02:29;2.53;;;1.55;;
10801;SDS011;5453;50.852;7.102;2023-02-28T08:05:02;1.55;;;1.25;;
10801;SDS011;5453;50.852;7.102;2023-02-28T08:07:36;2.50;;;2.08;;
10801;SDS011;5453;50.852;7.102;2023-02-28T08:10:09;4.35;;;1.40;;
10801;SDS011;5453;50.852;7.102;2023-02-28T08:12:49;3.80;;;1.58;;
10801;SDS011;5453;50.852;7.102;2023-02-28T08:15:24;3.15;;;1.55;;
10801;SDS011;5453;50.852;7.102;2023-02-28T08:17:57;3.53;;;1.38;;
10801;SDS011;5453;50.852;7.102;2023-02-28T08:20:32;3.00;;;1.42;;
10801;SDS011;5453;50.852;7.102;2023-02-28T08:23:04;3.05;;;1.30;;
10801;SDS011;5453;50.852;7.102;2023-02-28T08:25:37;1.40;;;1.25;;
10801;SDS011;5453;50.852;7.102;2023-02-28T08:28:09;2.28;;;1.67;;
10801;SDS011;5453;50.852;7.102;2023-02-28T08:30:43;2.58;;;1.55;;
10801;SDS011;5453;50.852;7.102;2023-02-28T08:33:15;1.90;;;1.00;;
10801;SDS011;5453;50.852;7.102;2023-02-28T08:35:48;1.88;;;1.30;;
10801;SDS011;5453;50.852;7.102;2023-02-28T08:38:25;1.13;;;0.93;;
10801;SDS011;5453;50.852;7.102;2023-02-28T08:40:57;1.98;;;1.00;;
10801;SDS011;5453;50.852;7.102;2023-02-28T08:43:30;4.35;;;1.55;;
10801;SDS011;5453;50.852;7.102;2023-02-28T08:46:06;1.75;;;1.00;;
10801;SDS011;5453;50.852;7.102;2023-02-28T08:48:40;1.58;;;1.33;;
10801;SDS011;5453;50.852;7.102;2023-02-28T08:51:15;3.35;;;1.60;;
10801;SDS011;5453;50.852;7.102;2023-02-28T08:53:52;1.95;;;1.10;;
10801;SDS011;5453;50.852;7.102;2023-02-28T08:56:25;1.90;;;1.05;;
10801;SDS011;5453;50.852;7.102;2023-02-28T08:59:00;1.95;;;1.20;;
10801;SDS011;5453;50.852;7.102;2023-02-28T09:01:35;1.95;;;1.20;;
10801;SDS011;5453;50.852;7.102;2023-02-28T09:04:09;1.88;;;1.20;;
10801;SDS011;5453;50.852;7.102;2023-02-28T09:06:42;2.92;;;1.30;;
10801;SDS011;5453;50.852;7.102;2023-02-28T09:09:15;1.40;;;1.10;;
10801;SDS011;5453;50.852;7.102;2023-02-28T09:11:48;3.42;;;1.20;;
10801;SDS011;5453;50.852;7.102;2023-02-28T09:14:20;2.10;;;1.10;;
10801;SDS011;5453;50.852;7.102;2023-02-28T09:16:56;1.50;;;1.10;;
10801;SDS011;5453;50.852;7.102;2023-02-28T09:19:28;3.03;;;1.63;;
10801;SDS011;5453;50.852;7.102;2023-02-28T09:22:01;1.70;;;1.25;;
10801;SDS011;5453;50.852;7.102;2023-02-28T09:24:34;1.48;;;1.17;;
10801;SDS011;5453;50.852;7.102;2023-02-28T09:27:08;2.03;;;1.20;;
10801;SDS011;5453;50.852;7.102;2023-02-28T09:29:42;3.17;;;1.38;;
10801;SDS011;5453;50.852;7.102;2023-02-28T09:32:17;4.03;;;1.33;;
10801;SDS011;5453;50.852;7.102;2023-02-28T09:34:50;2.58;;;1.35;;
10801;SDS011;5453;50.852;7.102;2023-02-28T09:37:22;2.97;;;1.33;;
10801;SDS011;5453;50.852;7.102;2023-02-28T09:39:56;1.60;;;1.10;;
10801;SDS011;5453;50.852;7.102;2023-02-28T09:42:30;3.22;;;1.20;;
10801;SDS011;5453;50.852;7.102;2023-02-28T09:45:06;2.08;;;1.88;;
10801;SDS011;5453;50.852;7.102;2023-02-28T09:50:31;2.88;;;1.30;;
10801;SDS011;5453;50.852;7.102;2023-02-28T09:53:11;2.72;;;1.40;;
10801;SDS011;5453;50.852;7.102;2023-02-28T09:55:55;3.15;;;1.42;;
10801;SDS011;5453;50.852;7.102;2023-02-28T09:58:31;2.60;;;1.40;;
10801;SDS011;5453;50.852;7.102;2023-02-28T10:01:10;3.88;;;1.90;;
10801;SDS011;5453;50.852;7.102;2023-02-28T10:03:57;2.20;;;1.33;;
10801;SDS011;5453;50.852;7.102;2023-02-28T10:06:39;3.40;;;1.40;;
10801;SDS011;5453;50.852;7.102;2023-02-28T10:09:17;1.73;;;1.15;;
10801;SDS011;5453;50.852;7.102;2023-02-28T10:11:56;2.03;;;1.30;;
10801;SDS011;5453;50.852;7.102;2023-02-28T10:14:33;1.42;;;1.13;;
10801;SDS011;5453;50.852;7.102;2023-02-28T10:17:11;2.22;;;1.40;;
10801;SDS011;5453;50.852;7.102;2023-02-28T10:19:49;2.63;;;1.30;;
10801;SDS011;5453;50.852;7.102;2023-02-28T10:22:31;2.90;;;1.30;;
10801;SDS011;5453;50.852;7.102;2023-02-28T10:25:16;2.25;;;1.30;;
10801;SDS011;5453;50.852;7.102;2023-02-28T10:27:52;2.10;;;1.10;;
10801;SDS011;5453;50.852;7.102;2023-02-28T10:30:30;2.20;;;1.08;;
10801;SDS011;5453;50.852;7.102;2023-02-28T10:33:03;1.90;;;1.33;;
10801;SDS011;5453;50.852;7.102;2023-02-28T10:35:37;1.60;;;1.10;;
10801;SDS011;5453;50.852;7.102;2023-02-28T10:38:11;2.17;;;1.10;;
10801;SDS011;5453;50.852;7.102;2023-02-28T10:40:50;1.42;;;1.17;;
10801;SDS011;5453;50.852;7.102;2023-02-28T10:43:23;1.60;;;1.50;;
10801;SDS011;5453;50.852;7.102;2023-02-28T10:45:57;2.70;;;1.30;;
10801;SDS011;5453;50.852;7.102;2023-02-28T10:48:34;4.60;;;2.17;;
10801;SDS011;5453;50.852;7.102;2023-02-28T10:51:12;3.13;;;1.60;;
10801;SDS011;5453;50.852;7.102;2023-02-28T10:53:48;3.47;;;1.60;;
10801;SDS011;5453;50.852;7.102;2023-02-28T10:56:24;2.33;;;1.20;;
10801;SDS011;5453;50.852;7.102;2023-02-28T10:58:58;2.38;;;1.40;;
10801;SDS011;5453;50.852;7.102;2023-02-28T11:01:37;2.53;;;1.30;;
10801;SDS011;5453;50.852;7.102;2023-02-28T11:04:18;1.55;;;1.02;;
10801;SDS011;5453;50.852;7.102;2023-02-28T11:07:19;3.20;;;1.58;;
10801;SDS011;5453;50.852;7.102;2023-02-28T11:09:53;2.45;;;1.45;;
10801;SDS011;5453;50.852;7.102;2023-02-28T11:12:29;3.85;;;1.65;;
10801;SDS011;5453;50.852;7.102;2023-02-28T11:15:05;2.33;;;1.65;;
10801;SDS011;5453;50.852;7.102;2023-02-28T11:17:54;2.38;;;1.50;;
10801;SDS011;5453;50.852;7.102;2023-02-28T11:20:30;2.45;;;1.15;;
10801;SDS011;5453;50.852;7.102;2023-02-28T11:23:06;3.17;;;1.10;;
10801;SDS011;5453;50.852;7.102;2023-02-28T11:25:46;2.17;;;1.40;;
10801;SDS011;5453;50.852;7.102;2023-02-28T11:28:25;3.53;;;2.40;;
10801;SDS011;5453;50.852;7.102;2023-02-28T11:31:04;3.33;;;1.70;;
10801;SDS011;5453;50.852;7.102;2023-02-28T11:33:50;4.22;;;1.98;;
10801;SDS011;5453;50.852;7.102;2023-02-28T11:36:27;1.88;;;1.27;;
10801;SDS011;5453;50.852;7.102;2023-02-28T11:39:10;4.35;;;1.80;;
10801;SDS011;5453;50.852;7.102;2023-02-28T11:41:52;2.30;;;1.55;;
10801;SDS011;5453;50.852;7.102;2023-02-28T11:44:47;3.28;;;1.50;;
10801;SDS011;5453;50.852;7.102;2023-02-28T11:47:34;4.80;;;2.00;;
10801;SDS011;5453;50.852;7.102;2023-02-28T11:50:21;3.70;;;2.00;;
10801;SDS011;5453;50.852;7.102;2023-02-28T11:53:22;3.30;;;1.65;;
10801;SDS011;5453;50.852;7.102;2023-02-28T11:56:32;2.60;;;1.50;;
10801;SDS011;5453;50.852;7.102;2023-02-28T11:59:13;2.20;;;1.50;;
10801;SDS011;5453;50.852;7.102;2023-02-28T12:02:18;4.35;;;1.67;;
10801;SDS011;5453;50.852;7.102;2023-02-28T12:05:02;3.17;;;1.60;;
10801;SDS011;5453;50.852;7.102;2023-02-28T12:07:49;4.15;;;2.05;;
10801;SDS011;5453;50.852;7.102;2023-02-28T12:10:35;2.65;;;1.60;;
10801;SDS011;5453;50.852;7.102;2023-02-28T12:13:19;2.95;;;1.50;;
10801;SDS011;5453;50.852;7.102;2023-02-28T12:19:13;3.35;;;1.73;;
10801;SDS011;5453;50.852;7.102;2023-02-28T12:22:12;1.92;;;1.42;;
10801;SDS011;5453;50.852;7.102;2023-02-28T12:25:21;3.08;;;1.60;;
10801;SDS011;5453;50.852;7.102;2023-02-28T12:28:24;4.13;;;2.38;;
10801;SDS011;5453;50.852;7.102;2023-02-28T12:31:03;4.43;;;2.40;;
10801;SDS011;5453;50.852;7.102;2023-02-28T12:33:43;2.70;;;1.65;;
10801;SDS011;5453;50.852;7.102;2023-02-28T12:36:23;2.90;;;1.83;;
10801;SDS011;5453;50.852;7.102;2023-02-28T12:38:59;2.97;;;1.80;;
10801;SDS011;5453;50.852;7.102;2023-02-28T12:41:37;2.88;;;1.67;;
10801;SDS011;5453;50.852;7.102;2023-02-28T12:44:15;3.05;;;2.00;;
10801;SDS011;5453;50.852;7.102;2023-02-28T12:49:33;4.45;;;2.13;;
10801;SDS011;5453;50.852;7.102;2023-02-28T12:52:10;9.20;;;2.47;;
10801;SDS011;5453;50.852;7.102;2023-02-28T12:54:47;3.15;;;1.88;;
10801;SDS011;5453;50.852;7.102;2023-02-28T12:57:28;3.38;;;1.85;;
10801;SDS011;5453;50.852;7.102;2023-02-28T13:00:12;2.75;;;1.63;;
10801;SDS011;5453;50.852;7.102;2023-02-28T13:02:57;3.15;;;1.70;;
10801;SDS011;5453;50.852;7.102;2023-02-28T13:06:05;3.55;;;2.00;;
10801;SDS011;5453;50.852;7.102;2023-02-28T13:09:03;2.45;;;1.88;;
10801;SDS011;5453;50.852;7.102;2023-02-28T13:11:41;2.05;;;1.50;;
10801;SDS011;5453;50.852;7.102;2023-02-28T13:14:20;21.45;;;7.20;;
10801;SDS011;5453;50.852;7.102;2023-02-28T13:17:09;21.52;;;7.05;;
10801;SDS011;5453;50.852;7.102;2023-02-28T13:19:44;3.50;;;2.10;;
10801;SDS011;5453;50.852;7.102;2023-02-28T13:22:38;2.67;;;1.80;;
10801;SDS011;5453;50.852;7.102;2023-02-28T13:31:29;3.97;;;1.95;;
10801;SDS011;5453;50.852;7.102;2023-02-28T13:34:11;4.60;;;1.90;;
10801;SDS011;5453;50.852;7.102;2023-02-28T13:36:46;3.72;;;2.13;;
10801;SDS011;5453;50.852;7.102;2023-02-28T13:42:30;4.75;;;2.20;;
10801;SDS011;5453;50.852;7.102;2023-02-28T13:45:20;2.15;;;1.60;;
10801;SDS011;5453;50.852;7.102;2023-02-28T13:47:59;4.68;;;2.00;;
10801;SDS011;5453;50.852;7.102;2023-02-28T13:50:34;3.65;;;2.40;;
10801;SDS011;5453;50.852;7.102;2023-02-28T13:56:27;3.30;;;1.85;;
10801;SDS011;5453;50.852;7.102;2023-02-28T13:59:15;5.63;;;2.30;;
10801;SDS011;5453;50.852;7.102;2023-02-28T14:02:01;4.43;;;2.10;;
10801;SDS011;5453;50.852;7.102;2023-02-28T14:05:01;4.63;;;2.75;;
10801;SDS011;5453;50.852;7.102;2023-02-28T14:07:40;3.85;;;2.28;;
10801;SDS011;5453;50.852;7.102;2023-02-28T14:10:22;10.60;;;4.07;;
10801;SDS011;5453;50.852;7.102;2023-02-28T14:15:39;3.40;;;2.08;;
10801;SDS011;5453;50.852;7.102;2023-02-28T14:18:17;3.15;;;1.73;;
10801;SDS011;5453;50.852;7.102;2023-02-28T14:20:57;5.72;;;3.20;;
10801;SDS011;5453;50.852;7.102;2023-02-28T14:23:54;6.03;;;3.00;;
10801;SDS011;5453;50.852;7.102;2023-02-28T14:30:26;3.95;;;2.10;;
10801;SDS011;5453;50.852;7.102;2023-02-28T14:33:27;5.55;;;2.88;;
10801;SDS011;5453;50.852;7.102;2023-02-28T14:36:14;4.72;;;2.30;;
10801;SDS011;5453;50.852;7.102;2023-02-28T14:38:54;4.63;;;2.60;;
10801;SDS011;5453;50.852;7.102;2023-02-28T14:41:30;4.07;;;2.20;;
10801;SDS011;5453;50.852;7.102;2023-02-28T14:44:14;5.88;;;2.47;;
10801;SDS011;5453;50.852;7.102;2023-02-28T14:49:23;4.20;;;2.35;;
10801;SDS011;5453;50.852;7.102;2023-02-28T14:52:03;4.70;;;2.15;;
10801;SDS011;5453;50.852;7.102;2023-02-28T14:54:41;3.30;;;2.25;;
10801;SDS011;5453;50.852;7.102;2023-02-28T14:57:22;5.13;;;2.67;;
10801;SDS011;5453;50.852;7.102;2023-02-28T15:00:03;5.30;;;2.85;;
10801;SDS011;5453;50.852;7.102;2023-02-28T15:05:21;4.47;;;2.50;;
10801;SDS011;5453;50.852;7.102;2023-02-28T15:08:03;2.17;;;1.73;;
10801;SDS011;5453;50.852;7.102;2023-02-28T15:10:43;4.50;;;2.42;;
10801;SDS011;5453;50.852;7.102;2023-02-28T15:13:17;4.53;;;2.58;;
10801;SDS011;5453;50.852;7.102;2023-02-28T15:15:51;7.18;;;2.70;;
10801;SDS011;5453;50.852;7.102;2023-02-28T15:18:28;4.20;;;2.38;;
10801;SDS011;5453;50.852;7.102;2023-02-28T15:21:08;4.63;;;2.83;;
10801;SDS011;5453;50.852;7.102;2023-02-28T15:23:45;3.95;;;2.40;;
10801;SDS011;5453;50.852;7.102;2023-02-28T15:26:22;4.18;;;2.50;;
10801;SDS011;5453;50.852;7.102;2023-02-28T15:28:59;3.45;;;2.35;;
10801;SDS011;5453;50.852;7.102;2023-02-28T15:31:35;5.18;;;2.47;;
10801;SDS011;5453;50.852;7.102;2023-02-28T15:34:15;4.38;;;3.05;;
10801;SDS011;5453;50.852;7.102;2023-02-28T15:36:52;3.53;;;2.05;;
10801;SDS011;5453;50.852;7.102;2023-02-28T15:39:25;6.40;;;2.55;;
10801;SDS011;5453;50.852;7.102;2023-02-28T15:42:16;3.78;;;2.17;;
10801;SDS011;5453;50.852;7.102;2023-02-28T15:44:51;4.90;;;3.00;;
10801;SDS011;5453;50.852;7.102;2023-02-28T15:47:23;4.15;;;2.22;;
10801;SDS011;5453;50.852;7.102;2023-02-28T15:49:58;4.63;;;2.58;;
10801;SDS011;5453;50.852;7.102;2023-02-28T15:52:33;4.78;;;2.13;;
10801;SDS011;5453;50.852;7.102;2023-02-28T15:55:15;3.67;;;2.10;;
10801;SDS011;5453;50.852;7.102;2023-02-28T15:57:54;4.53;;;2.50;;
10801;SDS011;5453;50.852;7.102;2023-02-28T16:00:29;4.05;;;2.25;;
10801;SDS011;5453;50.852;7.102;2023-02-28T16:09:09;4.78;;;2.28;;
10801;SDS011;5453;50.852;7.102;2023-02-28T16:11:44;8.20;;;2.65;;
10801;SDS011;5453;50.852;7.102;2023-02-28T16:14:20;5.00;;;2.22;;
10801;SDS011;5453;50.852;7.102;2023-02-28T16:16:57;5.43;;;2.40;;
10801;SDS011;5453;50.852;7.102;2023-02-28T16:19:36;2.85;;;2.25;;
10801;SDS011;5453;50.852;7.102;2023-02-28T16:22:08;2.83;;;2.00;;
10801;SDS011;5453;50.852;7.102;2023-02-28T16:24:41;3.17;;;2.15;;
10801;SDS011;5453;50.852;7.102;2023-02-28T16:27:17;5.95;;;2.55;;
10801;SDS011;5453;50.852;7.102;2023-02-28T16:29:54;4.82;;;2.25;;
10801;SDS011;5453;50.852;7.102;2023-02-28T16:32:26;3.15;;;2.30;;
10801;SDS011;5453;50.852;7.102;2023-02-28T16:34:58;4.30;;;2.40;;
10801;SDS011;5453;50.852;7.102;2023-02-28T16:37:30;4.55;;;2.42;;
10801;SDS011;5453;50.852;7.102;2023-02-28T16:40:03;4.45;;;2.03;;
10801;SDS011;5453;50.852;7.102;2023-02-28T16:42:36;3.50;;;1.98;;
10801;SDS011;5453;50.852;7.102;2023-02-28T16:45:15;3.20;;;1.80;;
10801;SDS011;5453;50.852;7.102;2023-02-28T16:47:50;4.38;;;1.88;;
10801;SDS011;5453;50.852;7.102;2023-02-28T16:50:23;3.05;;;1.83;;
10801;SDS011;5453;50.852;7.102;2023-02-28T16:52:57;2.22;;;1.65;;
10801;SDS011;5453;50.852;7.102;2023-02-28T16:55:29;4.72;;;2.60;;